Levantes — V7DS6 — position and weather

sailwx.info

Track history (hours):
 
Tides and Currents Weather Stations Pressure Air Temp Water Temp Dewpoint Dewpoint Depression Visibility Wind Speed Wind Dir Waves Ship Positions

Levantes

Last reported at 2018-Jul-14 19:30 UTC. Time now 2018-Jul-16 19:58 UTC.
Position N 42°11' E 031°20'.

Length 225 m; draft 12.9 m.

Type: Cargo ship. MMSI: 538006969.

Date/timePositionNaut miles runAvg speedWind from/ knotsBaromVisibWave heightAir tempDewpointWater temp
2018-Jul-14 19:30N 42°11' E 031°20'711.1
2018-Jul-14 18:51N 42°14' E 031°29'411.2
2018-Jul-14 18:30N 42°16' E 031°34'1711.1
2018-Jul-14 17:00N 42°24' E 031°54'511.0
2018-Jul-14 16:31N 42°26' E 032°00'2011.0
2018-Jul-14 14:41N 42°36' E 032°25'211.2
2018-Jul-14 14:30N 42°36' E 032°27'1311.2
2018-Jul-14 13:19N 42°43' E 032°43'411.3
2018-Jul-14 12:59N 42°44' E 032°48'511.2
2018-Jul-14 12:30N 42°47' E 032°54'611.1
2018-Jul-14 12:00N 42°49' E 033°01'14410.9
2018-Jul-13 22:48N 43°55' E 035°57'4910.9
2018-Jul-13 18:18N 44°16' E 036°58'411.1
2018-Jul-13 17:55N 44°18' E 037°04'511.0
2018-Jul-13 17:30N 44°20' E 037°09'510.9
2018-Jul-13 17:00N 44°22' E 037°16'510.8
2018-Jul-13 16:30N 44°25' E 037°23'510.6
2018-Jul-13 16:00N 44°27' E 037°29'510.6
2018-Jul-13 15:31N 44°30' E 037°36'510.7
2018-Jul-13 15:01N 44°32' E 037°42'8 8.4
2018-Jul-13 14:01N 44°36' E 037°53'0 0.0
2018-Jul-13 13:30N 44°36' E 037°53'0 0.0
2018-Jul-13 13:00N 44°36' E 037°53'0 0.0
2018-Jul-13 12:30N 44°36' E 037°53'0 0.0
2018-Jul-13 12:01N 44°36' E 037°53'0 0.0
2018-Jul-13 11:31N 44°36' E 037°53'0 0.0
2018-Jul-13 11:01N 44°36' E 037°53'0 0.0
2018-Jul-13 10:31N 44°36' E 037°53'0 0.1
2018-Jul-13 10:00N 44°36' E 037°53'0 0.1
2018-Jul-13 09:30N 44°36' E 037°53'0 0.0
2018-Jul-13 09:00N 44°36' E 037°53'0 0.0
2018-Jul-13 08:30N 44°36' E 037°53'0 0.1
2018-Jul-13 08:01N 44°36' E 037°53'0 0.0
2018-Jul-13 07:30N 44°36' E 037°53'0 0.1
2018-Jul-13 07:01N 44°36' E 037°53'0 0.1
2018-Jul-13 06:30N 44°36' E 037°53'0 0.1
2018-Jul-13 06:00N 44°36' E 037°53'0 0.0
2018-Jul-13 05:31N 44°36' E 037°53'0 0.0
2018-Jul-13 05:00N 44°36' E 037°53'0 0.1
2018-Jul-13 04:31N 44°36' E 037°53'0 0.0
2018-Jul-13 04:00N 44°36' E 037°53'0 0.0
2018-Jul-13 03:31N 44°36' E 037°53'0 0.0
2018-Jul-13 03:00N 44°36' E 037°53'0 0.0
2018-Jul-13 02:31N 44°36' E 037°53'0 0.0
2018-Jul-13 02:00N 44°36' E 037°53'0 0.0
2018-Jul-13 01:31N 44°36' E 037°53'0 0.1
2018-Jul-13 01:01N 44°36' E 037°53'0 0.5
2018-Jul-13 00:30N 44°35' E 037°53'2 4.7
2018-Jul-13 00:00N 44°36' E 037°50'2 4.9
2018-Jul-12 23:31N 44°38' E 037°50'3 5.9
2018-Jul-12 23:00N 44°41' E 037°49'3 5.5
2018-Jul-12 22:30N 44°44' E 037°48'0 0.7
2018-Jul-12 22:01N 44°44' E 037°47'0 0.0
2018-Jul-12 21:31N 44°44' E 037°47'0 0.0
2018-Jul-12 21:01N 44°44' E 037°47'0 0.0
2018-Jul-12 20:30N 44°44' E 037°47'0 0.0
2018-Jul-12 20:01N 44°44' E 037°47'0 0.0
2018-Jul-12 19:31N 44°44' E 037°47'0 0.0
2018-Jul-12 19:00N 44°44' E 037°47'0 0.0
2018-Jul-12 18:31N 44°44' E 037°47'0 0.0
2018-Jul-12 18:01N 44°44' E 037°47'0 0.0
2018-Jul-12 17:30N 44°44' E 037°47'0 0.0
2018-Jul-12 17:01N 44°44' E 037°47'0 0.0
2018-Jul-12 16:31N 44°44' E 037°47'0 0.0
2018-Jul-12 16:01N 44°44' E 037°47'0 0.0
2018-Jul-12 15:31N 44°44' E 037°47'0 0.0
2018-Jul-12 15:01N 44°44' E 037°47'0 0.0
2018-Jul-12 14:30N 44°44' E 037°47'0 0.0
2018-Jul-12 14:01N 44°44' E 037°47'0 0.0
2018-Jul-12 13:31N 44°44' E 037°47'0 0.0
2018-Jul-12 13:01N 44°44' E 037°47'0 0.0
2018-Jul-12 12:31N 44°44' E 037°47'0 0.0
2018-Jul-12 12:00N 44°44' E 037°47'0 0.0
2018-Jul-12 11:30N 44°44' E 037°47'0 0.0
2018-Jul-12 11:01N 44°44' E 037°47'0 0.0
2018-Jul-12 10:31N 44°44' E 037°47'0 0.0
2018-Jul-12 10:01N 44°44' E 037°47'0 0.0
2018-Jul-12 09:30N 44°44' E 037°47'0 0.0
2018-Jul-12 09:00N 44°44' E 037°47'0 0.0
2018-Jul-12 08:31N 44°44' E 037°47'0 0.0
2018-Jul-12 08:00N 44°44' E 037°47'0 0.0
2018-Jul-12 07:31N 44°44' E 037°47'0 0.0
2018-Jul-12 07:00N 44°44' E 037°47'0 0.0
2018-Jul-12 06:31N 44°44' E 037°47'0 0.0
2018-Jul-12 06:01N 44°44' E 037°47'0 0.0
2018-Jul-12 05:30N 44°44' E 037°47'0 0.0
2018-Jul-12 05:01N 44°44' E 037°47'0 0.0
2018-Jul-12 04:30N 44°44' E 037°47'0 0.0
2018-Jul-12 04:00N 44°44' E 037°47'0 0.0
2018-Jul-12 03:31N 44°44' E 037°47'0 0.0
2018-Jul-12 03:00N 44°44' E 037°47'0 0.0
2018-Jul-12 02:31N 44°44' E 037°47'0 0.0
2018-Jul-12 02:01N 44°44' E 037°47'0 0.0
2018-Jul-12 01:30N 44°44' E 037°47'0 0.0
2018-Jul-12 01:01N 44°44' E 037°47'0 0.0
2018-Jul-12 00:31N 44°44' E 037°47'0 0.0
2018-Jul-12 00:00N 44°44' E 037°47'0 0.0
2018-Jul-11 23:30N 44°44' E 037°47'0 0.0
2018-Jul-11 23:01N 44°44' E 037°47'0 0.0
2018-Jul-11 22:31N 44°44' E 037°47'0 0.0
2018-Jul-11 22:01N 44°44' E 037°47'0 0.0
2018-Jul-11 21:31N 44°44' E 037°47'0 0.0
2018-Jul-11 21:00N 44°44' E 037°47'0 0.0
2018-Jul-11 20:30N 44°44' E 037°47'0 0.0
2018-Jul-11 20:01N 44°44' E 037°47'0 0.0
2018-Jul-11 19:31N 44°44' E 037°47'0 0.0
2018-Jul-11 19:00N 44°44' E 037°47'0 0.0
2018-Jul-11 18:31N 44°44' E 037°47'0 0.0
2018-Jul-11 18:01N 44°44' E 037°47'0 0.0
2018-Jul-11 17:31N 44°44' E 037°47'0 0.0
2018-Jul-11 17:01N 44°44' E 037°47'0 0.0
2018-Jul-11 16:30N 44°44' E 037°47'0 0.0
2018-Jul-11 16:00N 44°44' E 037°47'0 0.0
2018-Jul-11 15:31N 44°44' E 037°47'0 0.0
2018-Jul-11 15:01N 44°44' E 037°47'0 0.0
2018-Jul-11 14:31N 44°44' E 037°47'0 0.0
2018-Jul-11 14:00N 44°44' E 037°47'0 0.1
2018-Jul-11 13:31N 44°44' E 037°47'0 0.0
2018-Jul-11 13:00N 44°44' E 037°47'0 0.0
2018-Jul-11 12:31N 44°44' E 037°47'0 0.0
2018-Jul-11 12:01N 44°44' E 037°47'0 0.0
2018-Jul-11 11:31N 44°44' E 037°47'0 0.0
2018-Jul-11 11:01N 44°44' E 037°47'0 0.0
2018-Jul-11 10:30N 44°44' E 037°47'0 0.0
2018-Jul-11 10:00N 44°44' E 037°47'0 0.0
2018-Jul-11 09:30N 44°44' E 037°47'0 0.0
2018-Jul-11 09:00N 44°44' E 037°47'0 0.0
2018-Jul-11 08:30N 44°44' E 037°47'0 0.0
2018-Jul-11 08:00N 44°44' E 037°47'0 0.0
2018-Jul-11 07:31N 44°44' E 037°47'0 0.0
2018-Jul-11 07:01N 44°44' E 037°47'0 0.0
2018-Jul-11 06:30N 44°44' E 037°47'0 0.0
2018-Jul-11 06:01N 44°44' E 037°47'0 0.0
2018-Jul-11 05:30N 44°44' E 037°47'0 0.0
2018-Jul-11 05:00N 44°44' E 037°47'0 0.0
2018-Jul-11 04:30N 44°44' E 037°47'0 0.0
2018-Jul-11 04:01N 44°44' E 037°47'0 0.0
2018-Jul-11 03:31N 44°44' E 037°47'0 0.0
2018-Jul-11 03:00N 44°44' E 037°47'0 0.0
2018-Jul-11 02:31N 44°44' E 037°47'0 0.0
2018-Jul-11 02:01N 44°44' E 037°47'0 0.0
2018-Jul-11 01:31N 44°44' E 037°47'0 0.0
2018-Jul-11 01:00N 44°44' E 037°47'0 0.0
2018-Jul-11 00:30N 44°44' E 037°47'0 0.0
2018-Jul-11 00:00N 44°44' E 037°47'0 0.0
2018-Jul-10 23:30N 44°44' E 037°47'0 0.0
2018-Jul-10 23:00N 44°44' E 037°47'0 0.0
2018-Jul-10 22:31N 44°44' E 037°47'0 0.0
2018-Jul-10 22:01N 44°44' E 037°47'0 0.0
2018-Jul-10 21:31N 44°44' E 037°47'0 0.0
2018-Jul-10 21:01N 44°44' E 037°47'0 0.0
2018-Jul-10 20:30N 44°44' E 037°47'0 0.0
2018-Jul-10 20:01N 44°44' E 037°47'0 0.0
2018-Jul-10 19:31N 44°44' E 037°47'0 0.0
2018-Jul-10 19:00N 44°44' E 037°47'0 0.0
2018-Jul-10 18:30N 44°44' E 037°47'0 0.0
2018-Jul-10 18:01N 44°44' E 037°47'0 0.0
2018-Jul-10 17:30N 44°44' E 037°47'0 0.0
2018-Jul-10 17:01N 44°44' E 037°47'0 0.0
2018-Jul-10 16:30N 44°44' E 037°47'0 0.0
2018-Jul-10 16:00N 44°44' E 037°47'0 0.0
2018-Jul-10 15:30N 44°44' E 037°47'0 0.0
2018-Jul-10 15:00N 44°44' E 037°47'0 0.0
2018-Jul-10 14:31N 44°44' E 037°47'0 0.1
2018-Jul-10 14:01N 44°44' E 037°47'0 0.1
2018-Jul-10 13:31N 44°44' E 037°47'0 0.0
2018-Jul-10 13:01N 44°44' E 037°47'0 0.0
2018-Jul-10 12:31N 44°44' E 037°47'0 0.0
2018-Jul-10 12:01N 44°44' E 037°47'0 0.0
2018-Jul-10 11:30N 44°44' E 037°47'0 0.0
2018-Jul-10 11:01N 44°44' E 037°47'0 0.0
2018-Jul-10 10:31N 44°44' E 037°47'0 0.0
2018-Jul-10 10:01N 44°44' E 037°47'0 0.0
2018-Jul-10 09:31N 44°44' E 037°47'0 0.0
2018-Jul-10 09:00N 44°44' E 037°47'0 0.0
2018-Jul-10 08:30N 44°44' E 037°47'0 0.0
2018-Jul-10 08:01N 44°44' E 037°47'0 0.0
2018-Jul-10 07:30N 44°44' E 037°47'0 0.0
2018-Jul-10 07:01N 44°44' E 037°47'0 0.0
2018-Jul-10 06:30N 44°44' E 037°47'0 0.0
2018-Jul-10 06:01N 44°44' E 037°47'0 0.0
2018-Jul-10 05:30N 44°44' E 037°47'0 0.0
2018-Jul-10 05:01N 44°44' E 037°47'0 0.0
2018-Jul-10 04:31N 44°44' E 037°47'0 0.0
2018-Jul-10 04:00N 44°44' E 037°47'0 0.0
2018-Jul-10 03:30N 44°44' E 037°47'0 0.0
2018-Jul-10 03:00N 44°44' E 037°47'0 0.0
2018-Jul-10 02:30N 44°44' E 037°47'0 0.0
2018-Jul-10 02:01N 44°44' E 037°47'0 0.0
2018-Jul-10 01:30N 44°44' E 037°47'0 0.0
2018-Jul-10 01:00N 44°44' E 037°47'0 0.0
2018-Jul-10 00:31N 44°44' E 037°47'0 0.0
2018-Jul-10 00:00N 44°44' E 037°47'0 0.0
2018-Jul-09 23:31N 44°44' E 037°47'0 0.0
2018-Jul-09 23:00N 44°44' E 037°47'0 0.0
2018-Jul-09 22:30N 44°44' E 037°47'0 0.0
2018-Jul-09 22:01N 44°44' E 037°47'0 0.0
2018-Jul-09 21:31N 44°44' E 037°47'0 0.0
2018-Jul-09 21:00N 44°44' E 037°47'0 0.0
2018-Jul-09 20:31N 44°44' E 037°47'0 0.0
2018-Jul-09 20:01N 44°44' E 037°47'0 0.0
2018-Jul-09 19:30N 44°44' E 037°47'0 0.0
2018-Jul-09 19:01N 44°44' E 037°47'0 0.0
2018-Jul-09 18:30N 44°44' E 037°47'0 0.0
2018-Jul-09 18:01N 44°44' E 037°47'0 0.0
2018-Jul-09 17:30N 44°44' E 037°47'0 0.0
2018-Jul-09 17:01N 44°44' E 037°47'0 0.0
2018-Jul-09 16:31N 44°44' E 037°47'0 0.0
2018-Jul-09 16:00N 44°44' E 037°47'0 0.0
2018-Jul-09 15:31N 44°44' E 037°47'0 0.0
2018-Jul-09 15:01N 44°44' E 037°47'0 0.0
2018-Jul-09 14:30N 44°44' E 037°47'0 0.0
2018-Jul-09 14:01N 44°44' E 037°47'0 0.0
2018-Jul-09 13:31N 44°44' E 037°47'0 0.0
2018-Jul-09 13:01N 44°44' E 037°47'0 0.0
2018-Jul-09 12:30N 44°44' E 037°47'0 0.0
2018-Jul-09 12:00N 44°44' E 037°47'0 0.0
2018-Jul-09 11:30N 44°44' E 037°47'0 0.0
2018-Jul-09 11:01N 44°44' E 037°47'0 0.0
2018-Jul-09 10:29N 44°44' E 037°47'0 0.0
2018-Jul-09 10:00N 44°44' E 037°47'0 0.0
2018-Jul-09 09:31N 44°44' E 037°47'0 0.0
2018-Jul-09 09:01N 44°44' E 037°47'0 0.0
2018-Jul-09 08:31N 44°44' E 037°47'1 2.9
2018-Jul-09 08:01N 44°43' E 037°48'2 4.1
2018-Jul-09 07:31N 44°41' E 037°50'0 0.9
2018-Jul-09 07:00N 44°41' E 037°51'0 0.0
2018-Jul-09 06:30N 44°41' E 037°51'0 0.0
2018-Jul-09 06:00N 44°41' E 037°51'0 0.0
2018-Jul-09 05:30N 44°41' E 037°51'0 0.0
2018-Jul-09 05:01N 44°41' E 037°51'0 0.0
2018-Jul-09 04:29N 44°41' E 037°51'0 0.0
2018-Jul-09 03:59N 44°41' E 037°51'0 0.1
2018-Jul-09 03:29N 44°41' E 037°51'0 0.0
2018-Jul-09 02:59N 44°41' E 037°51'0 0.0
2018-Jul-09 02:29N 44°41' E 037°51'0 0.0
2018-Jul-09 02:01N 44°41' E 037°51'0 0.0
2018-Jul-09 01:28N 44°41' E 037°51'0 0.2
2018-Jul-09 00:58N 44°41' E 037°51'0 0.2
2018-Jul-09 00:30N 44°41' E 037°51'1 2.2
2018-Jul-09 00:00N 44°40' E 037°51'3 5.4
2018-Jul-08 23:30N 44°37' E 037°51'4 8.1
2018-Jul-08 23:00N 44°33' E 037°49'510.7
2018-Jul-08 22:31N 44°29' E 037°44'611.1
2018-Jul-08 22:00N 44°25' E 037°39'611.1
2018-Jul-08 21:30N 44°20' E 037°34'611.0
2018-Jul-08 20:58N 44°15' E 037°30'1011.1
2018-Jul-08 20:04N 44°07' E 037°23'111.1
2018-Jul-08 19:59N 44°06' E 037°22'611.2
2018-Jul-08 19:27N 44°01' E 037°17'611.2
2018-Jul-08 18:55N 43°57' E 037°12'511.3
2018-Jul-08 18:30N 43°53' E 037°08'611.1
2018-Jul-08 18:00N 43°49' E 037°03'611.2
2018-Jul-08 17:29N 43°44' E 036°58'1511.5
2018-Jul-08 16:09N 43°32' E 036°45'162 9.7
2018-Jul-07 23:30N 42°18' E 033°29'1010.9
2018-Jul-07 22:38N 42°13' E 033°18'211.1
2018-Jul-07 22:29N 42°12' E 033°16'9810.6
2018-Jul-07 13:12N 41°58' E 031°05'211.2
2018-Jul-07 13:00N 41°58' E 031°02'354 7.0
2018-Jul-05 10:10N 37°35' E 025°54'211.4
2018-Jul-05 10:00N 37°34' E 025°55'  
Track history (hours):
 
Tides and Currents Weather Stations Pressure Air Temp Water Temp Dewpoint Dewpoint Depression Visibility Wind Speed Wind Dir Waves Ship Positions

Levantes

Last reported at 2018-Jul-14 19:30 UTC. Time now 2018-Jul-16 19:58 UTC.
Position N 42°11' E 031°20'.

Length 225 m; draft 12.9 m.

Type: Cargo ship. MMSI: 538006969.

Date/timePositionNaut miles runAvg speedWind from/ knotsBaromVisibWave heightAir tempDewpointWater temp
2018-Jul-14 19:30N 42°11' E 031°20'711.1
2018-Jul-14 18:51N 42°14' E 031°29'411.2
2018-Jul-14 18:30N 42°16' E 031°34'1711.1
2018-Jul-14 17:00N 42°24' E 031°54'511.0
2018-Jul-14 16:31N 42°26' E 032°00'2011.0
2018-Jul-14 14:41N 42°36' E 032°25'211.2
2018-Jul-14 14:30N 42°36' E 032°27'1311.2
2018-Jul-14 13:19N 42°43' E 032°43'411.3
2018-Jul-14 12:59N 42°44' E 032°48'511.2
2018-Jul-14 12:30N 42°47' E 032°54'611.1
2018-Jul-14 12:00N 42°49' E 033°01'14410.9
2018-Jul-13 22:48N 43°55' E 035°57'4910.9
2018-Jul-13 18:18N 44°16' E 036°58'411.1
2018-Jul-13 17:55N 44°18' E 037°04'511.0
2018-Jul-13 17:30N 44°20' E 037°09'510.9
2018-Jul-13 17:00N 44°22' E 037°16'510.8
2018-Jul-13 16:30N 44°25' E 037°23'510.6
2018-Jul-13 16:00N 44°27' E 037°29'510.6
2018-Jul-13 15:31N 44°30' E 037°36'510.7
2018-Jul-13 15:01N 44°32' E 037°42'8 8.4
2018-Jul-13 14:01N 44°36' E 037°53'0 0.0
2018-Jul-13 13:30N 44°36' E 037°53'0 0.0
2018-Jul-13 13:00N 44°36' E 037°53'0 0.0
2018-Jul-13 12:30N 44°36' E 037°53'0 0.0
2018-Jul-13 12:01N 44°36' E 037°53'0 0.0
2018-Jul-13 11:31N 44°36' E 037°53'0 0.0
2018-Jul-13 11:01N 44°36' E 037°53'0 0.0
2018-Jul-13 10:31N 44°36' E 037°53'0 0.1
2018-Jul-13 10:00N 44°36' E 037°53'0 0.1
2018-Jul-13 09:30N 44°36' E 037°53'0 0.0
2018-Jul-13 09:00N 44°36' E 037°53'0 0.0
2018-Jul-13 08:30N 44°36' E 037°53'0 0.1
2018-Jul-13 08:01N 44°36' E 037°53'0 0.0
2018-Jul-13 07:30N 44°36' E 037°53'0 0.1
2018-Jul-13 07:01N 44°36' E 037°53'0 0.1
2018-Jul-13 06:30N 44°36' E 037°53'0 0.1
2018-Jul-13 06:00N 44°36' E 037°53'0 0.0
2018-Jul-13 05:31N 44°36' E 037°53'0 0.0
2018-Jul-13 05:00N 44°36' E 037°53'0 0.1
2018-Jul-13 04:31N 44°36' E 037°53'0 0.0
2018-Jul-13 04:00N 44°36' E 037°53'0 0.0
2018-Jul-13 03:31N 44°36' E 037°53'0 0.0
2018-Jul-13 03:00N 44°36' E 037°53'0 0.0
2018-Jul-13 02:31N 44°36' E 037°53'0 0.0
2018-Jul-13 02:00N 44°36' E 037°53'0 0.0
2018-Jul-13 01:31N 44°36' E 037°53'0 0.1
2018-Jul-13 01:01N 44°36' E 037°53'0 0.5
2018-Jul-13 00:30N 44°35' E 037°53'2 4.7
2018-Jul-13 00:00N 44°36' E 037°50'2 4.9
2018-Jul-12 23:31N 44°38' E 037°50'3 5.9
2018-Jul-12 23:00N 44°41' E 037°49'3 5.5
2018-Jul-12 22:30N 44°44' E 037°48'0 0.7
2018-Jul-12 22:01N 44°44' E 037°47'0 0.0
2018-Jul-12 21:31N 44°44' E 037°47'0 0.0
2018-Jul-12 21:01N 44°44' E 037°47'0 0.0
2018-Jul-12 20:30N 44°44' E 037°47'0 0.0
2018-Jul-12 20:01N 44°44' E 037°47'0 0.0
2018-Jul-12 19:31N 44°44' E 037°47'0 0.0
2018-Jul-12 19:00N 44°44' E 037°47'0 0.0
2018-Jul-12 18:31N 44°44' E 037°47'0 0.0
2018-Jul-12 18:01N 44°44' E 037°47'0 0.0
2018-Jul-12 17:30N 44°44' E 037°47'0 0.0
2018-Jul-12 17:01N 44°44' E 037°47'0 0.0
2018-Jul-12 16:31N 44°44' E 037°47'0 0.0
2018-Jul-12 16:01N 44°44' E 037°47'0 0.0
2018-Jul-12 15:31N 44°44' E 037°47'0 0.0
2018-Jul-12 15:01N 44°44' E 037°47'0 0.0
2018-Jul-12 14:30N 44°44' E 037°47'0 0.0
2018-Jul-12 14:01N 44°44' E 037°47'0 0.0
2018-Jul-12 13:31N 44°44' E 037°47'0 0.0
2018-Jul-12 13:01N 44°44' E 037°47'0 0.0
2018-Jul-12 12:31N 44°44' E 037°47'0 0.0
2018-Jul-12 12:00N 44°44' E 037°47'0 0.0
2018-Jul-12 11:30N 44°44' E 037°47'0 0.0
2018-Jul-12 11:01N 44°44' E 037°47'0 0.0
2018-Jul-12 10:31N 44°44' E 037°47'0 0.0
2018-Jul-12 10:01N 44°44' E 037°47'0 0.0
2018-Jul-12 09:30N 44°44' E 037°47'0 0.0
2018-Jul-12 09:00N 44°44' E 037°47'0 0.0
2018-Jul-12 08:31N 44°44' E 037°47'0 0.0
2018-Jul-12 08:00N 44°44' E 037°47'0 0.0
2018-Jul-12 07:31N 44°44' E 037°47'0 0.0
2018-Jul-12 07:00N 44°44' E 037°47'0 0.0
2018-Jul-12 06:31N 44°44' E 037°47'0 0.0
2018-Jul-12 06:01N 44°44' E 037°47'0 0.0
2018-Jul-12 05:30N 44°44' E 037°47'0 0.0
2018-Jul-12 05:01N 44°44' E 037°47'0 0.0
2018-Jul-12 04:30N 44°44' E 037°47'0 0.0
2018-Jul-12 04:00N 44°44' E 037°47'0 0.0
2018-Jul-12 03:31N 44°44' E 037°47'0 0.0
2018-Jul-12 03:00N 44°44' E 037°47'0 0.0
2018-Jul-12 02:31N 44°44' E 037°47'0 0.0
2018-Jul-12 02:01N 44°44' E 037°47'0 0.0
2018-Jul-12 01:30N 44°44' E 037°47'0 0.0
2018-Jul-12 01:01N 44°44' E 037°47'0 0.0
2018-Jul-12 00:31N 44°44' E 037°47'0 0.0
2018-Jul-12 00:00N 44°44' E 037°47'0 0.0
2018-Jul-11 23:30N 44°44' E 037°47'0 0.0
2018-Jul-11 23:01N 44°44' E 037°47'0 0.0
2018-Jul-11 22:31N 44°44' E 037°47'0 0.0
2018-Jul-11 22:01N 44°44' E 037°47'0 0.0
2018-Jul-11 21:31N 44°44' E 037°47'0 0.0
2018-Jul-11 21:00N 44°44' E 037°47'0 0.0
2018-Jul-11 20:30N 44°44' E 037°47'0 0.0
2018-Jul-11 20:01N 44°44' E 037°47'0 0.0
2018-Jul-11 19:31N 44°44' E 037°47'0 0.0
2018-Jul-11 19:00N 44°44' E 037°47'0 0.0
2018-Jul-11 18:31N 44°44' E 037°47'0 0.0
2018-Jul-11 18:01N 44°44' E 037°47'0 0.0
2018-Jul-11 17:31N 44°44' E 037°47'0 0.0
2018-Jul-11 17:01N 44°44' E 037°47'0 0.0
2018-Jul-11 16:30N 44°44' E 037°47'0 0.0
2018-Jul-11 16:00N 44°44' E 037°47'0 0.0
2018-Jul-11 15:31N 44°44' E 037°47'0 0.0
2018-Jul-11 15:01N 44°44' E 037°47'0 0.0
2018-Jul-11 14:31N 44°44' E 037°47'0 0.0
2018-Jul-11 14:00N 44°44' E 037°47'0 0.1
2018-Jul-11 13:31N 44°44' E 037°47'0 0.0
2018-Jul-11 13:00N 44°44' E 037°47'0 0.0
2018-Jul-11 12:31N 44°44' E 037°47'0 0.0
2018-Jul-11 12:01N 44°44' E 037°47'0 0.0
2018-Jul-11 11:31N 44°44' E 037°47'0 0.0
2018-Jul-11 11:01N 44°44' E 037°47'0 0.0
2018-Jul-11 10:30N 44°44' E 037°47'0 0.0
2018-Jul-11 10:00N 44°44' E 037°47'0 0.0
2018-Jul-11 09:30N 44°44' E 037°47'0 0.0
2018-Jul-11 09:00N 44°44' E 037°47'0 0.0
2018-Jul-11 08:30N 44°44' E 037°47'0 0.0
2018-Jul-11 08:00N 44°44' E 037°47'0 0.0
2018-Jul-11 07:31N 44°44' E 037°47'0 0.0
2018-Jul-11 07:01N 44°44' E 037°47'0 0.0
2018-Jul-11 06:30N 44°44' E 037°47'0 0.0
2018-Jul-11 06:01N 44°44' E 037°47'0 0.0
2018-Jul-11 05:30N 44°44' E 037°47'0 0.0
2018-Jul-11 05:00N 44°44' E 037°47'0 0.0
2018-Jul-11 04:30N 44°44' E 037°47'0 0.0
2018-Jul-11 04:01N 44°44' E 037°47'0 0.0
2018-Jul-11 03:31N 44°44' E 037°47'0 0.0
2018-Jul-11 03:00N 44°44' E 037°47'0 0.0
2018-Jul-11 02:31N 44°44' E 037°47'0 0.0
2018-Jul-11 02:01N 44°44' E 037°47'0 0.0
2018-Jul-11 01:31N 44°44' E 037°47'0 0.0
2018-Jul-11 01:00N 44°44' E 037°47'0 0.0
2018-Jul-11 00:30N 44°44' E 037°47'0 0.0
2018-Jul-11 00:00N 44°44' E 037°47'0 0.0
2018-Jul-10 23:30N 44°44' E 037°47'0 0.0
2018-Jul-10 23:00N 44°44' E 037°47'0 0.0
2018-Jul-10 22:31N 44°44' E 037°47'0 0.0
2018-Jul-10 22:01N 44°44' E 037°47'0 0.0
2018-Jul-10 21:31N 44°44' E 037°47'0 0.0
2018-Jul-10 21:01N 44°44' E 037°47'0 0.0
2018-Jul-10 20:30N 44°44' E 037°47'0 0.0
2018-Jul-10 20:01N 44°44' E 037°47'0 0.0
2018-Jul-10 19:31N 44°44' E 037°47'0 0.0
2018-Jul-10 19:00N 44°44' E 037°47'0 0.0
2018-Jul-10 18:30N 44°44' E 037°47'0 0.0
2018-Jul-10 18:01N 44°44' E 037°47'0 0.0
2018-Jul-10 17:30N 44°44' E 037°47'0 0.0
2018-Jul-10 17:01N 44°44' E 037°47'0 0.0
2018-Jul-10 16:30N 44°44' E 037°47'0 0.0
2018-Jul-10 16:00N 44°44' E 037°47'0 0.0
2018-Jul-10 15:30N 44°44' E 037°47'0 0.0
2018-Jul-10 15:00N 44°44' E 037°47'0 0.0
2018-Jul-10 14:31N 44°44' E 037°47'0 0.1
2018-Jul-10 14:01N 44°44' E 037°47'0 0.1
2018-Jul-10 13:31N 44°44' E 037°47'0 0.0
2018-Jul-10 13:01N 44°44' E 037°47'0 0.0
2018-Jul-10 12:31N 44°44' E 037°47'0 0.0
2018-Jul-10 12:01N 44°44' E 037°47'0 0.0
2018-Jul-10 11:30N 44°44' E 037°47'0 0.0
2018-Jul-10 11:01N 44°44' E 037°47'0 0.0
2018-Jul-10 10:31N 44°44' E 037°47'0 0.0
2018-Jul-10 10:01N 44°44' E 037°47'0 0.0
2018-Jul-10 09:31N 44°44' E 037°47'0 0.0
2018-Jul-10 09:00N 44°44' E 037°47'0 0.0
2018-Jul-10 08:30N 44°44' E 037°47'0 0.0
2018-Jul-10 08:01N 44°44' E 037°47'0 0.0
2018-Jul-10 07:30N 44°44' E 037°47'0 0.0
2018-Jul-10 07:01N 44°44' E 037°47'0 0.0
2018-Jul-10 06:30N 44°44' E 037°47'0 0.0
2018-Jul-10 06:01N 44°44' E 037°47'0 0.0
2018-Jul-10 05:30N 44°44' E 037°47'0 0.0
2018-Jul-10 05:01N 44°44' E 037°47'0 0.0
2018-Jul-10 04:31N 44°44' E 037°47'0 0.0
2018-Jul-10 04:00N 44°44' E 037°47'0 0.0
2018-Jul-10 03:30N 44°44' E 037°47'0 0.0
2018-Jul-10 03:00N 44°44' E 037°47'0 0.0
2018-Jul-10 02:30N 44°44' E 037°47'0 0.0
2018-Jul-10 02:01N 44°44' E 037°47'0 0.0
2018-Jul-10 01:30N 44°44' E 037°47'0 0.0
2018-Jul-10 01:00N 44°44' E 037°47'0 0.0
2018-Jul-10 00:31N 44°44' E 037°47'0 0.0
2018-Jul-10 00:00N 44°44' E 037°47'0 0.0
2018-Jul-09 23:31N 44°44' E 037°47'0 0.0
2018-Jul-09 23:00N 44°44' E 037°47'0 0.0
2018-Jul-09 22:30N 44°44' E 037°47'0 0.0
2018-Jul-09 22:01N 44°44' E 037°47'0 0.0
2018-Jul-09 21:31N 44°44' E 037°47'0 0.0
2018-Jul-09 21:00N 44°44' E 037°47'0 0.0
2018-Jul-09 20:31N 44°44' E 037°47'0 0.0
2018-Jul-09 20:01N 44°44' E 037°47'0 0.0
2018-Jul-09 19:30N 44°44' E 037°47'0 0.0
2018-Jul-09 19:01N 44°44' E 037°47'0 0.0
2018-Jul-09 18:30N 44°44' E 037°47'0 0.0
2018-Jul-09 18:01N 44°44' E 037°47'0 0.0
2018-Jul-09 17:30N 44°44' E 037°47'0 0.0
2018-Jul-09 17:01N 44°44' E 037°47'0 0.0
2018-Jul-09 16:31N 44°44' E 037°47'0 0.0
2018-Jul-09 16:00N 44°44' E 037°47'0 0.0
2018-Jul-09 15:31N 44°44' E 037°47'0 0.0
2018-Jul-09 15:01N 44°44' E 037°47'0 0.0
2018-Jul-09 14:30N 44°44' E 037°47'0 0.0
2018-Jul-09 14:01N 44°44' E 037°47'0 0.0
2018-Jul-09 13:31N 44°44' E 037°47'0 0.0
2018-Jul-09 13:01N 44°44' E 037°47'0 0.0
2018-Jul-09 12:30N 44°44' E 037°47'0 0.0
2018-Jul-09 12:00N 44°44' E 037°47'0 0.0
2018-Jul-09 11:30N 44°44' E 037°47'0 0.0
2018-Jul-09 11:01N 44°44' E 037°47'0 0.0
2018-Jul-09 10:29N 44°44' E 037°47'0 0.0
2018-Jul-09 10:00N 44°44' E 037°47'0 0.0
2018-Jul-09 09:31N 44°44' E 037°47'0 0.0
2018-Jul-09 09:01N 44°44' E 037°47'0 0.0
2018-Jul-09 08:31N 44°44' E 037°47'1 2.9
2018-Jul-09 08:01N 44°43' E 037°48'2 4.1
2018-Jul-09 07:31N 44°41' E 037°50'0 0.9
2018-Jul-09 07:00N 44°41' E 037°51'0 0.0
2018-Jul-09 06:30N 44°41' E 037°51'0 0.0
2018-Jul-09 06:00N 44°41' E 037°51'0 0.0
2018-Jul-09 05:30N 44°41' E 037°51'0 0.0
2018-Jul-09 05:01N 44°41' E 037°51'0 0.0
2018-Jul-09 04:29N 44°41' E 037°51'0 0.0
2018-Jul-09 03:59N 44°41' E 037°51'0 0.1
2018-Jul-09 03:29N 44°41' E 037°51'0 0.0
2018-Jul-09 02:59N 44°41' E 037°51'0 0.0
2018-Jul-09 02:29N 44°41' E 037°51'0 0.0
2018-Jul-09 02:01N 44°41' E 037°51'0 0.0
2018-Jul-09 01:28N 44°41' E 037°51'0 0.2
2018-Jul-09 00:58N 44°41' E 037°51'0 0.2
2018-Jul-09 00:30N 44°41' E 037°51'1 2.2
2018-Jul-09 00:00N 44°40' E 037°51'3 5.4
2018-Jul-08 23:30N 44°37' E 037°51'4 8.1
2018-Jul-08 23:00N 44°33' E 037°49'510.7
2018-Jul-08 22:31N 44°29' E 037°44'611.1
2018-Jul-08 22:00N 44°25' E 037°39'611.1
2018-Jul-08 21:30N 44°20' E 037°34'611.0
2018-Jul-08 20:58N 44°15' E 037°30'1011.1
2018-Jul-08 20:04N 44°07' E 037°23'111.1
2018-Jul-08 19:59N 44°06' E 037°22'611.2
2018-Jul-08 19:27N 44°01' E 037°17'611.2
2018-Jul-08 18:55N 43°57' E 037°12'511.3
2018-Jul-08 18:30N 43°53' E 037°08'611.1
2018-Jul-08 18:00N 43°49' E 037°03'611.2
2018-Jul-08 17:29N 43°44' E 036°58'1511.5
2018-Jul-08 16:09N 43°32' E 036°45'162 9.7
2018-Jul-07 23:30N 42°18' E 033°29'1010.9
2018-Jul-07 22:38N 42°13' E 033°18'211.1
2018-Jul-07 22:29N 42°12' E 033°16'9810.6
2018-Jul-07 13:12N 41°58' E 031°05'211.2
2018-Jul-07 13:00N 41°58' E 031°02'354 7.0
2018-Jul-05 10:10N 37°35' E 025°54'211.4
2018-Jul-05 10:00N 37°34' E 025°55'  

Dump ship's entire track history